createdAt,value
2018-02-20T00:00:04.104Z,6.08
2018-02-20T00:00:44.664Z,6.06
2018-02-20T00:01:25.260Z,6.04
2018-02-20T00:02:05.808Z,6.12
2018-02-20T00:02:46.376Z,6.12
2018-02-20T00:03:26.930Z,5.96
2018-02-20T00:04:07.507Z,5.85
2018-02-20T00:04:48.084Z,5.89
2018-02-20T00:05:28.635Z,5.79
2018-02-20T00:06:09.193Z,5.86
2018-02-20T00:06:49.758Z,5.91
2018-02-20T00:07:30.335Z,5.89
2018-02-20T00:08:10.936Z,5.74
2018-02-20T00:08:51.426Z,5.54
2018-02-20T00:09:32.015Z,5.46
2018-02-20T00:10:12.570Z,5.53
2018-02-20T00:10:53.129Z,5.4
2018-02-20T00:11:33.694Z,5.38
2018-02-20T00:12:14.271Z,5.45
2018-02-20T00:12:55.093Z,5.58
2018-02-20T00:13:35.657Z,5.58
2018-02-20T00:14:16.240Z,5.58
2018-02-20T00:14:56.802Z,5.72
2018-02-20T00:15:37.353Z,5.78
2018-02-20T00:16:17.912Z,5.65
2018-02-20T00:16:58.469Z,5.48
2018-02-20T00:17:39.046Z,5.49
2018-02-20T00:18:19.610Z,5.67
2018-02-20T00:19:00.188Z,5.61
2018-02-20T00:19:40.750Z,5.72
2018-02-20T00:20:21.335Z,5.67
2018-02-20T00:21:01.894Z,5.61
2018-02-20T00:21:42.453Z,5.6
2018-02-20T00:22:23.008Z,5.63
2018-02-20T00:23:03.581Z,5.56
2018-02-20T00:23:44.154Z,5.46
2018-02-20T00:24:24.702Z,5.45
2018-02-20T00:25:05.265Z,5.43
2018-02-20T00:25:45.811Z,5.4
2018-02-20T00:26:26.353Z,5.35
2018-02-20T00:27:06.932Z,5.31
2018-02-20T00:27:47.491Z,5.24
2018-02-20T00:28:28.025Z,5.39
2018-02-20T00:29:08.576Z,5.27
2018-02-20T00:29:49.151Z,5.2
2018-02-20T00:30:29.654Z,5.27
2018-02-20T00:31:10.217Z,5.25
2018-02-20T00:31:50.836Z,5.27
2018-02-20T00:32:31.331Z,5.35
2018-02-20T00:33:11.891Z,5.54
2018-02-20T00:33:52.446Z,5.54
2018-02-20T00:34:33.017Z,5.51
2018-02-20T00:35:13.587Z,5.54
2018-02-20T00:35:54.155Z,5.46
2018-02-20T00:36:34.721Z,5.24
2018-02-20T00:37:15.286Z,5.31
2018-02-20T00:37:55.850Z,5.25
2018-02-20T00:38:36.413Z,5.22
2018-02-20T00:39:16.943Z,5.02
2018-02-20T00:39:57.513Z,5.1
2018-02-20T00:40:38.082Z,4.99
2018-02-20T00:41:18.632Z,5.09
2018-02-20T00:41:59.174Z,5.03
2018-02-20T00:42:39.733Z,5.09
2018-02-20T00:43:20.312Z,5.18
2018-02-20T00:44:00.823Z,5.06
2018-02-20T00:44:41.348Z,5.28
2018-02-20T00:45:21.925Z,5.24
2018-02-20T00:46:02.451Z,5.22
2018-02-20T00:46:43.030Z,5.39
2018-02-20T00:47:23.577Z,5.33
2018-02-20T00:48:04.116Z,5.46
2018-02-20T00:48:44.639Z,5.45
2018-02-20T00:49:25.219Z,5.57
2018-02-20T00:50:05.768Z,5.56
2018-02-20T00:50:46.339Z,5.4
2018-02-20T00:51:26.881Z,5.39
2018-02-20T00:52:07.445Z,5.51
2018-02-20T00:52:48.022Z,5.49
2018-02-20T00:53:28.577Z,5.54
2018-02-20T00:54:09.143Z,5.46
2018-02-20T00:54:49.703Z,5.43
2018-02-20T00:55:30.264Z,5.24
2018-02-20T00:56:10.820Z,5.07
2018-02-20T00:56:51.385Z,5.21
2018-02-20T00:57:31.942Z,5.2
2018-02-20T00:58:12.504Z,5.1
2018-02-20T00:58:53.065Z,5.09
2018-02-20T00:59:33.620Z,5.22
2018-02-20T01:00:14.248Z,5.12
2018-02-20T01:00:54.701Z,5.04
2018-02-20T01:01:35.259Z,5.04
2018-02-20T01:02:15.808Z,5.13
2018-02-20T01:02:56.356Z,5.18
2018-02-20T01:03:36.904Z,5.31
2018-02-20T01:04:17.474Z,5.35
2018-02-20T01:04:58.016Z,5.42
2018-02-20T01:05:38.573Z,5.39
2018-02-20T01:06:19.115Z,5.45
2018-02-20T01:06:59.668Z,5.53
2018-02-20T01:07:40.228Z,5.56
2018-02-20T01:08:20.778Z,5.63
2018-02-20T01:09:01.346Z,5.63
2018-02-20T01:09:41.892Z,5.45
2018-02-20T01:10:22.456Z,5.48
2018-02-20T01:11:03.030Z,5.54
2018-02-20T01:11:43.583Z,5.58
2018-02-20T01:12:24.148Z,5.57
2018-02-20T01:13:04.724Z,5.61
2018-02-20T01:13:45.286Z,5.6
2018-02-20T01:14:25.837Z,5.61
2018-02-20T01:15:06.412Z,5.54
2018-02-20T01:15:46.963Z,5.53
2018-02-20T01:16:27.527Z,5.54
2018-02-20T01:17:08.098Z,5.43
2018-02-20T01:17:48.652Z,5.25
2018-02-20T01:18:29.215Z,5.35
2018-02-20T01:19:09.762Z,5.31
2018-02-20T01:19:50.324Z,5.21
2018-02-20T01:20:30.875Z,5.09
2018-02-20T01:21:11.430Z,5
2018-02-20T01:21:52.001Z,5.1
2018-02-20T01:22:32.566Z,4.94
2018-02-20T01:23:13.144Z,5.03
2018-02-20T01:23:53.714Z,5.18
2018-02-20T01:24:34.288Z,5.21
2018-02-20T01:25:14.803Z,5.22
2018-02-20T01:25:55.368Z,5.33
2018-02-20T01:26:35.917Z,5.33
2018-02-20T01:27:16.455Z,5.25
2018-02-20T01:27:57.050Z,5.4
2018-02-20T01:28:37.593Z,5.31
2018-02-20T01:29:18.169Z,5.35
2018-02-20T01:29:58.734Z,5.42
2018-02-20T01:30:39.315Z,5.43
2018-02-20T01:31:19.884Z,5.48
2018-02-20T01:32:00.445Z,5.39
2018-02-20T01:32:40.981Z,5.39
2018-02-20T01:33:21.586Z,5.24
2018-02-20T01:34:02.140Z,5.21
2018-02-20T01:34:42.734Z,5.39
2018-02-20T01:35:23.299Z,5.27
2018-02-20T01:36:03.838Z,5.33
2018-02-20T01:36:44.375Z,5.28
2018-02-20T01:37:24.905Z,5.36
2018-02-20T01:38:05.449Z,5.31
2018-02-20T01:38:45.948Z,5.24
2018-02-20T01:39:26.491Z,5.39
2018-02-20T01:40:07.013Z,5.3
2018-02-20T01:40:47.523Z,5.3
2018-02-20T01:41:28.084Z,5.13
2018-02-20T01:42:08.646Z,5.13
2018-02-20T01:42:49.246Z,5.1
2018-02-20T01:43:29.755Z,5.06
2018-02-20T01:44:10.335Z,5.25
2018-02-20T01:44:50.822Z,5.21
2018-02-20T01:45:31.368Z,5.18
2018-02-20T01:46:11.931Z,5.21
2018-02-20T01:46:52.489Z,5.07
2018-02-20T01:47:33.039Z,5
2018-02-20T01:48:13.603Z,5.07
2018-02-20T01:48:54.184Z,5.1
2018-02-20T01:49:34.727Z,5.04
2018-02-20T01:50:15.280Z,5.17
2018-02-20T01:50:55.869Z,5.15
2018-02-20T01:51:36.416Z,5.21
2018-02-20T01:52:16.991Z,5.17
2018-02-20T01:52:57.549Z,5.07
2018-02-20T01:53:38.117Z,5.25
2018-02-20T01:54:18.660Z,5.18
2018-02-20T01:54:59.245Z,5.28
2018-02-20T01:55:39.804Z,5.38
2018-02-20T01:56:20.366Z,5.36
2018-02-20T01:57:00.904Z,5.39
2018-02-20T01:57:42.316Z,5.36
2018-02-20T01:58:22.834Z,5.36
2018-02-20T01:59:03.383Z,5.4
2018-02-20T01:59:43.934Z,5.51
2018-02-20T02:00:24.489Z,5.46
2018-02-20T02:01:04.983Z,5.53
2018-02-20T02:01:45.494Z,5.63
2018-02-20T02:02:26.052Z,5.65
2018-02-20T02:03:06.566Z,5.54
2018-02-20T02:03:47.114Z,5.51
2018-02-20T02:04:27.684Z,5.57
2018-02-20T02:05:08.230Z,5.53
2018-02-20T02:05:48.796Z,5.46
2018-02-20T02:06:29.359Z,5.35
2018-02-20T02:07:09.898Z,5.45
2018-02-20T02:07:50.462Z,5.51
2018-02-20T02:08:31.044Z,5.54
2018-02-20T02:09:11.648Z,5.56
2018-02-20T02:09:52.203Z,5.48
2018-02-20T02:10:32.692Z,5.53
2018-02-20T02:11:13.241Z,5.61
2018-02-20T02:11:53.815Z,5.56
2018-02-20T02:12:34.297Z,5.64
2018-02-20T02:13:14.826Z,5.64
2018-02-20T02:13:55.367Z,5.57
2018-02-20T02:14:35.875Z,5.54
2018-02-20T02:15:16.413Z,5.49
2018-02-20T02:15:56.966Z,5.54
2018-02-20T02:16:37.512Z,5.51
2018-02-20T02:17:18.064Z,5.56
2018-02-20T02:17:58.617Z,5.53
2018-02-20T02:18:39.154Z,5.49
2018-02-20T02:19:19.671Z,5.46
2018-02-20T02:20:00.258Z,5.54
2018-02-20T02:20:40.788Z,5.48
2018-02-20T02:21:21.353Z,5.58
2018-02-20T02:22:01.844Z,5.58
2018-02-20T02:22:42.458Z,5.63
2018-02-20T02:23:22.982Z,5.67
2018-02-20T02:24:03.490Z,5.72
2018-02-20T02:24:44.073Z,5.68
2018-02-20T02:25:24.543Z,5.68
2018-02-20T02:26:05.140Z,5.68
2018-02-20T02:26:45.643Z,5.75
2018-02-20T02:27:26.126Z,5.65
2018-02-20T02:28:06.706Z,5.76
2018-02-20T02:28:47.289Z,5.68
2018-02-20T02:29:27.740Z,5.46
2018-02-20T02:30:08.272Z,5.31
2018-02-20T02:30:48.836Z,5.39
2018-02-20T02:31:29.344Z,5.45
2018-02-20T02:32:09.880Z,5.43
2018-02-20T02:32:50.476Z,5.38
2018-02-20T02:33:31.010Z,5.39
2018-02-20T02:34:11.471Z,5.4
2018-02-20T02:34:52.050Z,5.43
2018-02-20T02:35:32.542Z,5.46
2018-02-20T02:36:13.102Z,5.45
2018-02-20T02:36:53.633Z,5.48
2018-02-20T02:37:34.174Z,5.57
2018-02-20T02:38:14.713Z,5.51
2018-02-20T02:38:55.270Z,5.51
2018-02-20T02:39:35.806Z,5.49
2018-02-20T02:40:16.391Z,5.48
2018-02-20T02:40:56.924Z,5.57
2018-02-20T02:41:37.459Z,5.49
2018-02-20T02:42:18.106Z,5.53
2018-02-20T02:42:58.521Z,5.53
2018-02-20T02:43:39.070Z,5.46
2018-02-20T02:44:19.613Z,5.53
2018-02-20T02:45:00.179Z,5.43
2018-02-20T02:45:40.738Z,5.45
2018-02-20T02:46:21.308Z,5.36
2018-02-20T02:47:01.869Z,5.33
2018-02-20T02:47:42.423Z,5.4
2018-02-20T02:48:22.981Z,5.39
2018-02-20T02:49:03.552Z,5.38
2018-02-20T02:49:44.125Z,5.43
2018-02-20T02:50:24.703Z,5.46
2018-02-20T02:51:05.260Z,5.48
2018-02-20T02:51:45.826Z,5.54
2018-02-20T02:52:26.391Z,5.53
2018-02-20T02:53:06.946Z,5.51
2018-02-20T02:53:47.498Z,5.51
2018-02-20T02:54:28.062Z,5.48
2018-02-20T02:55:08.639Z,5.56
2018-02-20T02:55:49.198Z,5.53
2018-02-20T02:56:29.762Z,5.51
2018-02-20T02:57:10.321Z,5.56
2018-02-20T02:57:50.890Z,5.54
2018-02-20T02:58:31.450Z,5.54
2018-02-20T02:59:12.003Z,5.53
2018-02-20T02:59:52.567Z,5.56
2018-02-20T03:00:33.132Z,5.36
2018-02-20T03:01:13.709Z,5.45
2018-02-20T03:01:54.354Z,5.42
2018-02-20T03:02:34.910Z,5.4
2018-02-20T03:03:15.462Z,5.39
2018-02-20T03:03:56.012Z,5.38
2018-02-20T03:04:36.580Z,5.4
2018-02-20T03:05:17.143Z,5.4
2018-02-20T03:05:57.716Z,5.4
2018-02-20T03:06:38.276Z,5.43
2018-02-20T03:07:18.851Z,5.43
2018-02-20T03:07:59.402Z,5.46
2018-02-20T03:08:39.957Z,5.3
2018-02-20T03:09:20.492Z,5.22
2018-02-20T03:10:01.037Z,5.24
2018-02-20T03:10:41.602Z,5.22
2018-02-20T03:11:22.142Z,5.31
2018-02-20T03:12:02.694Z,5.38
2018-02-20T03:12:43.258Z,5.36
2018-02-20T03:13:23.794Z,5.31
2018-02-20T03:14:04.341Z,5.35
2018-02-20T03:14:44.909Z,5.38
2018-02-20T03:15:25.453Z,5.3
2018-02-20T03:16:06.012Z,5.24
2018-02-20T03:16:46.560Z,5.31
2018-02-20T03:17:27.133Z,5.35
2018-02-20T03:18:07.680Z,5.35
2018-02-20T03:18:48.242Z,5.36
2018-02-20T03:19:28.806Z,5.36
2018-02-20T03:20:09.365Z,5.35
2018-02-20T03:20:49.950Z,5.38
2018-02-20T03:21:30.507Z,5.49
2018-02-20T03:22:11.070Z,5.49
2018-02-20T03:22:51.628Z,5.31
2018-02-20T03:23:32.189Z,5.38
2018-02-20T03:24:12.752Z,5.27
2018-02-20T03:24:53.312Z,5.2
2018-02-20T03:25:33.865Z,5.22
2018-02-20T03:26:14.424Z,5.27
2018-02-20T03:26:55.033Z,5.27
2018-02-20T03:27:35.596Z,5.25
2018-02-20T03:28:16.143Z,5.3
2018-02-20T03:28:56.698Z,5.18
2018-02-20T03:29:37.262Z,5.25
2018-02-20T03:30:17.815Z,5.18
2018-02-20T03:30:58.394Z,5.22
2018-02-20T03:31:38.947Z,5.21
2018-02-20T03:32:19.510Z,5.22
2018-02-20T03:33:00.077Z,5.17
2018-02-20T03:33:40.619Z,5.21
2018-02-20T03:34:21.166Z,5.17
2018-02-20T03:35:01.720Z,5.13
2018-02-20T03:35:42.273Z,5.22
2018-02-20T03:36:22.834Z,5.25
2018-02-20T03:37:03.388Z,5.2
2018-02-20T03:37:43.940Z,5.18
2018-02-20T03:38:24.502Z,5.02
2018-02-20T03:39:05.045Z,5.21
2018-02-20T03:39:45.644Z,5.24
2018-02-20T03:40:26.191Z,5.3
2018-02-20T03:41:06.767Z,5.3
2018-02-20T03:41:47.320Z,5.36
2018-02-20T03:42:27.882Z,5.27
2018-02-20T03:43:08.438Z,5.3
2018-02-20T03:43:48.980Z,5.31
2018-02-20T03:44:29.518Z,5.3
2018-02-20T03:45:10.074Z,5.36
2018-02-20T03:45:50.640Z,5.38
2018-02-20T03:46:31.198Z,5.4
2018-02-20T03:47:11.751Z,5.4
2018-02-20T03:47:52.308Z,5.4
2018-02-20T03:48:32.856Z,5.45
2018-02-20T03:49:13.401Z,5.42
2018-02-20T03:49:53.981Z,5.4
2018-02-20T03:50:34.532Z,5.4
2018-02-20T03:51:15.066Z,5.36
2018-02-20T03:51:55.632Z,5.33
2018-02-20T03:52:36.229Z,5.22
2018-02-20T03:53:16.781Z,5.33
2018-02-20T03:53:57.327Z,5.22
2018-02-20T03:54:37.897Z,5.27
2018-02-20T03:55:18.456Z,5.22
2018-02-20T03:55:59.044Z,5.27
2018-02-20T03:56:39.606Z,5.27
2018-02-20T03:57:20.180Z,5.25
2018-02-20T03:58:00.749Z,5.17
2018-02-20T03:58:41.359Z,4.97
2018-02-20T03:59:21.904Z,5.04
2018-02-20T04:00:02.476Z,5.09
2018-02-20T04:00:43.029Z,5.03
2018-02-20T04:01:23.588Z,5.1
2018-02-20T04:02:04.164Z,5.13
2018-02-20T04:02:44.726Z,5.1
2018-02-20T04:03:25.296Z,5.04
2018-02-20T04:04:05.851Z,5.12
2018-02-20T04:04:46.399Z,5.24
2018-02-20T04:05:26.939Z,5.35
2018-02-20T04:06:07.509Z,5.31
2018-02-20T04:06:48.079Z,5.39
2018-02-20T04:07:28.640Z,5.15
2018-02-20T04:08:09.198Z,5.35
2018-02-20T04:08:49.756Z,5.36
2018-02-20T04:09:30.310Z,5.24
2018-02-20T04:10:10.869Z,5.12
2018-02-20T04:10:51.422Z,5.03
2018-02-20T04:11:32.037Z,5
2018-02-20T04:12:12.614Z,5.13
2018-02-20T04:12:53.392Z,5.13
2018-02-20T04:13:33.707Z,4.89
2018-02-20T04:14:14.267Z,4.78
2018-02-20T04:14:54.825Z,4.85
2018-02-20T04:15:35.368Z,4.96
2018-02-20T04:16:15.935Z,4.97
2018-02-20T04:16:56.499Z,5.06
2018-02-20T04:17:37.046Z,5.07
2018-02-20T04:18:17.627Z,5
2018-02-20T04:18:58.196Z,4.96
2018-02-20T04:19:38.759Z,4.99
2018-02-20T04:20:19.312Z,5
2018-02-20T04:20:59.917Z,5.04
2018-02-20T04:21:40.430Z,5.1
2018-02-20T04:22:20.990Z,5.1
2018-02-20T04:23:01.567Z,5.04
2018-02-20T04:23:42.118Z,5.09
2018-02-20T04:24:22.716Z,5.09
2018-02-20T04:25:03.272Z,5.13
2018-02-20T04:25:43.792Z,5.22
2018-02-20T04:26:24.281Z,5.13
2018-02-20T04:27:04.869Z,5.17
2018-02-20T04:27:45.416Z,5
2018-02-20T04:28:25.959Z,4.82
2018-02-20T04:29:06.493Z,4.86
2018-02-20T04:29:47.002Z,4.88
2018-02-20T04:30:27.514Z,4.97
2018-02-20T04:31:08.073Z,5.06
2018-02-20T04:31:48.603Z,5.04
2018-02-20T04:32:29.111Z,5.15
2018-02-20T04:33:09.671Z,4.99
2018-02-20T04:33:50.195Z,4.91
2018-02-20T04:34:30.748Z,4.96
2018-02-20T04:35:11.238Z,4.7
2018-02-20T04:35:51.794Z,4.78
2018-02-20T04:36:32.362Z,4.78
2018-02-20T04:37:12.943Z,4.91
2018-02-20T04:37:53.483Z,4.85
2018-02-20T04:38:34.007Z,4.82
2018-02-20T04:39:14.522Z,4.94
2018-02-20T04:39:55.217Z,4.94
2018-02-20T04:40:35.770Z,4.99
2018-02-20T04:41:16.331Z,5.06
2018-02-20T04:41:56.882Z,5.02
2018-02-20T04:42:37.452Z,5.09
2018-02-20T04:43:18.016Z,5.07
2018-02-20T04:43:58.579Z,5.2
2018-02-20T04:44:39.124Z,5.18
2018-02-20T04:45:19.697Z,5.07
2018-02-20T04:46:00.260Z,5.07
2018-02-20T04:46:40.814Z,5.15
2018-02-20T04:47:21.383Z,5.2
2018-02-20T04:48:01.991Z,5.18
2018-02-20T04:48:42.494Z,5.31
2018-02-20T04:49:23.053Z,5.21
2018-02-20T04:50:03.621Z,5.15
2018-02-20T04:50:44.196Z,5.36
2018-02-20T04:51:24.757Z,5.31
2018-02-20T04:52:05.365Z,5.3
2018-02-20T04:52:45.946Z,5.24
2018-02-20T04:53:26.494Z,5.1
2018-02-20T04:54:07.052Z,4.99
2018-02-20T04:54:47.629Z,4.89
2018-02-20T04:55:28.187Z,4.94
2018-02-20T04:56:08.752Z,4.91
2018-02-20T04:56:49.400Z,4.85
2018-02-20T04:57:29.965Z,4.94
2018-02-20T04:58:10.523Z,4.96
2018-02-20T04:58:51.070Z,5
2018-02-20T04:59:31.628Z,5.07
2018-02-20T05:00:12.183Z,5.04
2018-02-20T05:00:52.735Z,5.06
2018-02-20T05:01:33.296Z,5.21
2018-02-20T05:02:13.844Z,5.18
2018-02-20T05:02:54.435Z,4.99
2018-02-20T05:03:34.988Z,4.89
2018-02-20T05:04:15.565Z,5.02
2018-02-20T05:04:56.114Z,4.88
2018-02-20T05:05:36.710Z,4.97
2018-02-20T05:06:17.250Z,5.02
2018-02-20T05:06:57.820Z,5.15
2018-02-20T05:07:38.365Z,5.15
2018-02-20T05:08:18.922Z,5.17
2018-02-20T05:08:59.462Z,5.24
2018-02-20T05:09:40.050Z,5.1
2018-02-20T05:10:20.603Z,5.12
2018-02-20T05:11:01.173Z,5.28
2018-02-20T05:11:41.723Z,5.21
2018-02-20T05:12:22.276Z,5.22
2018-02-20T05:13:02.847Z,5.27
2018-02-20T05:13:43.416Z,5.17
2018-02-20T05:14:23.964Z,5.13
2018-02-20T05:15:04.532Z,5.13
2018-02-20T05:15:45.138Z,5.15
2018-02-20T05:16:25.700Z,5.21
2018-02-20T05:17:06.269Z,5.2
2018-02-20T05:17:46.819Z,5
2018-02-20T05:18:27.369Z,4.84
2018-02-20T05:19:07.934Z,4.75
2018-02-20T05:19:48.484Z,4.84
2018-02-20T05:20:29.034Z,4.86
2018-02-20T05:21:09.579Z,5.09
2018-02-20T05:21:50.187Z,5.07
2018-02-20T05:22:30.739Z,5.13
2018-02-20T05:23:11.298Z,5.21
2018-02-20T05:23:51.849Z,5.17
2018-02-20T05:24:32.419Z,5.04
2018-02-20T05:25:12.981Z,5.18
2018-02-20T05:25:53.528Z,5.17
2018-02-20T05:26:34.065Z,5.21
2018-02-20T05:27:14.623Z,5.09
2018-02-20T05:27:55.184Z,5.1
2018-02-20T05:28:35.873Z,5.2
2018-02-20T05:29:16.428Z,5.28
2018-02-20T05:29:57.004Z,5.25
2018-02-20T05:30:37.551Z,5.22
2018-02-20T05:31:18.121Z,5.21
2018-02-20T05:31:58.678Z,5.18
2018-02-20T05:32:39.246Z,5.17
2018-02-20T05:33:19.800Z,5.22
2018-02-20T05:34:00.360Z,5.28
2018-02-20T05:34:40.907Z,5.27
2018-02-20T05:35:21.454Z,5.25
2018-02-20T05:36:02.011Z,5.18
2018-02-20T05:36:42.573Z,5.31
2018-02-20T05:37:23.127Z,5.12
2018-02-20T05:38:03.688Z,5.07
2018-02-20T05:38:44.250Z,5.1
2018-02-20T05:39:24.816Z,4.99
2018-02-20T05:40:05.388Z,4.88
2018-02-20T05:40:45.970Z,4.86
2018-02-20T05:41:26.601Z,4.78
2018-02-20T05:42:07.165Z,4.66
2018-02-20T05:42:47.711Z,4.77
2018-02-20T05:43:28.292Z,4.78
2018-02-20T05:44:08.886Z,4.85
2018-02-20T05:44:49.444Z,4.85
2018-02-20T05:45:30.011Z,4.89
2018-02-20T05:46:10.578Z,4.94
2018-02-20T05:46:51.141Z,4.96
2018-02-20T05:47:31.774Z,4.97
2018-02-20T05:48:12.330Z,4.99
2018-02-20T05:48:52.875Z,5.03
2018-02-20T05:49:33.432Z,5.09
2018-02-20T05:50:13.984Z,5.07
2018-02-20T05:50:54.565Z,5.07
2018-02-20T05:51:35.120Z,5.17
2018-02-20T05:52:15.674Z,5.2
2018-02-20T05:52:56.223Z,5.24
2018-02-20T05:53:36.789Z,5.27
2018-02-20T05:54:17.353Z,5.02
2018-02-20T05:54:57.903Z,5.24
2018-02-20T05:55:38.457Z,5.24
2018-02-20T05:56:19.070Z,5.3
2018-02-20T05:56:59.706Z,5.22
2018-02-20T05:57:40.284Z,5.21
2018-02-20T05:58:20.868Z,5.21
2018-02-20T05:59:01.399Z,5.25
2018-02-20T05:59:41.968Z,5.36
2018-02-20T06:00:22.537Z,5.22
2018-02-20T06:01:03.079Z,5.24
2018-02-20T06:01:43.647Z,5.2
2018-02-20T06:02:24.199Z,5.36
2018-02-20T06:03:04.772Z,5.28
2018-02-20T06:03:45.332Z,5.2
2018-02-20T06:04:25.894Z,5.22
2018-02-20T06:05:06.446Z,5.1
2018-02-20T06:05:47.040Z,5.03
2018-02-20T06:06:27.558Z,5.03
2018-02-20T06:07:08.108Z,4.97
2018-02-20T06:07:48.713Z,4.97
2018-02-20T06:08:29.295Z,5.04
2018-02-20T06:09:09.857Z,4.96
2018-02-20T06:09:50.410Z,5.12
2018-02-20T06:10:30.955Z,5
2018-02-20T06:11:11.518Z,4.78
2018-02-20T06:11:52.103Z,4.78
2018-02-20T06:12:32.692Z,4.94
2018-02-20T06:13:13.250Z,4.94
2018-02-20T06:13:53.806Z,4.85
2018-02-20T06:14:34.398Z,4.8
2018-02-20T06:15:14.912Z,4.91
2018-02-20T06:15:55.435Z,4.97
2018-02-20T06:16:35.920Z,4.91
2018-02-20T06:17:16.487Z,4.97
2018-02-20T06:17:57.039Z,4.99
2018-02-20T06:18:37.611Z,5.03
2018-02-20T06:19:18.220Z,4.96
2018-02-20T06:19:58.713Z,4.94
2018-02-20T06:20:39.227Z,5
2018-02-20T06:21:19.797Z,5.02
2018-02-20T06:22:01.035Z,5
2018-02-20T06:22:41.601Z,5.1
2018-02-20T06:23:22.151Z,5.09
2018-02-20T06:24:02.714Z,4.89
2018-02-20T06:24:43.300Z,4.78
2018-02-20T06:25:23.835Z,4.92
2018-02-20T06:26:04.397Z,4.99
2018-02-20T06:26:44.932Z,4.99
2018-02-20T06:27:25.474Z,4.89
2018-02-20T06:28:06.028Z,5.03
2018-02-20T06:28:46.585Z,4.94
2018-02-20T06:29:27.184Z,5.06
2018-02-20T06:30:07.718Z,5.02
2018-02-20T06:30:48.272Z,5.07
2018-02-20T06:31:28.873Z,5.03
2018-02-20T06:32:09.437Z,5.02
2018-02-20T06:32:50.024Z,4.88
2018-02-20T06:33:30.582Z,4.97
2018-02-20T06:34:11.137Z,4.89
2018-02-20T06:34:51.682Z,4.99
2018-02-20T06:35:32.244Z,5.03
2018-02-20T06:36:12.820Z,5.07
2018-02-20T06:36:53.413Z,5.12
2018-02-20T06:37:34.287Z,5.1
2018-02-20T06:38:14.797Z,5.06
2018-02-20T06:38:55.355Z,5.18
2018-02-20T06:39:35.906Z,5.27
2018-02-20T06:40:16.464Z,5.15
2018-02-20T06:40:56.980Z,5.22
2018-02-20T06:41:37.545Z,5.25
2018-02-20T06:42:18.106Z,5.25
2018-02-20T06:42:58.661Z,5.35
2018-02-20T06:43:39.234Z,5.25
2018-02-20T06:44:19.942Z,5.31
2018-02-20T06:45:00.502Z,5.18
2018-02-20T06:45:41.042Z,5.31
2018-02-20T06:46:21.614Z,5.35
2018-02-20T06:47:02.465Z,5.22
2018-02-20T06:47:43.040Z,5.15
2018-02-20T06:48:23.629Z,5.31
2018-02-20T06:49:04.213Z,5.31
2018-02-20T06:49:44.817Z,5.22
2018-02-20T06:50:25.723Z,5.35
2018-02-20T06:51:06.297Z,5.38
2018-02-20T06:51:46.919Z,5.38
2018-02-20T06:52:27.490Z,5.4
2018-02-20T06:53:08.062Z,5.39
2018-02-20T06:53:48.802Z,5.39
2018-02-20T06:54:29.423Z,5.42
2018-02-20T06:55:10.013Z,5.38
2018-02-20T06:55:50.574Z,5.39
2018-02-20T06:56:31.142Z,5.48
2018-02-20T06:57:11.710Z,5.45
2018-02-20T06:57:52.301Z,5.27
2018-02-20T06:58:32.865Z,5.27
2018-02-20T06:59:13.485Z,5.3
2018-02-20T06:59:54.056Z,5.43
2018-02-20T07:00:34.645Z,5.36
2018-02-20T07:01:15.299Z,5.35
2018-02-20T07:01:55.908Z,5.43
2018-02-20T07:02:36.476Z,5.39
2018-02-20T07:03:17.037Z,5.25
2018-02-20T07:03:57.598Z,5.28
2018-02-20T07:04:38.153Z,5.31
2018-02-20T07:05:18.735Z,5.35
2018-02-20T07:05:59.284Z,5.45
2018-02-20T07:06:39.834Z,5.48
2018-02-20T07:07:20.399Z,5.51
2018-02-20T07:08:00.960Z,5.48
2018-02-20T07:08:41.523Z,5.46
2018-02-20T07:09:22.091Z,5.49
2018-02-20T07:10:02.647Z,5.91
2018-02-20T07:10:43.259Z,5.82
2018-02-20T07:11:23.829Z,5.82
2018-02-20T07:12:04.402Z,5.75
2018-02-20T07:12:44.897Z,5.76
2018-02-20T07:13:25.474Z,5.68
2018-02-20T07:14:06.104Z,5.54
2018-02-20T07:14:46.592Z,5.58
2018-02-20T07:15:27.149Z,5.57
2018-02-20T07:16:07.724Z,5.63
2018-02-20T07:16:48.417Z,5.58
2018-02-20T07:17:28.906Z,5.54
2018-02-20T07:18:09.475Z,6.09
2018-02-20T07:18:50.025Z,6.31
2018-02-20T07:19:30.584Z,6.18
2018-02-20T07:20:11.141Z,6
2018-02-20T07:20:51.965Z,5.97
2018-02-20T07:21:32.527Z,5.96
2018-02-20T07:22:13.078Z,6.14
2018-02-20T07:22:53.639Z,5.97
2018-02-20T07:23:34.270Z,5.74
2018-02-20T07:24:14.997Z,5.74
2018-02-20T07:24:55.584Z,5.85
2018-02-20T07:25:36.202Z,5.89
2018-02-20T07:26:16.847Z,5.83
2018-02-20T07:26:57.356Z,5.68
2018-02-20T07:27:37.935Z,5.56
2018-02-20T07:28:18.481Z,5.56
2018-02-20T07:28:59.128Z,5.57
2018-02-20T07:29:39.677Z,5.54
2018-02-20T07:30:20.228Z,5.67
2018-02-20T07:31:00.836Z,5.67
2018-02-20T07:31:41.406Z,5.6
2018-02-20T07:32:22.000Z,5.71
2018-02-20T07:33:02.593Z,5.68
2018-02-20T07:33:43.181Z,5.71
2018-02-20T07:34:23.776Z,5.82
2018-02-20T07:35:04.311Z,5.78
2018-02-20T07:35:44.977Z,5.85
2018-02-20T07:36:25.548Z,5.83
2018-02-20T07:37:06.101Z,5.97
2018-02-20T07:37:46.671Z,5.99
2018-02-20T07:38:27.228Z,5.93
2018-02-20T07:39:07.800Z,5.94
2018-02-20T07:39:48.385Z,5.99
2018-02-20T07:40:28.932Z,5.9
2018-02-20T07:41:09.496Z,5.96
2018-02-20T07:41:50.015Z,6.14
2018-02-20T07:42:30.574Z,5.99
2018-02-20T07:43:11.137Z,6.11
2018-02-20T07:43:51.797Z,5.97
2018-02-20T07:44:32.396Z,6.01
2018-02-20T07:45:12.972Z,5.99
2018-02-20T07:45:53.647Z,6.08
2018-02-20T07:46:34.242Z,6.17
2018-02-20T07:47:14.868Z,6.28
2018-02-20T07:47:55.499Z,6.3
2018-02-20T07:48:36.014Z,6.21
2018-02-20T07:49:16.574Z,6.18
2018-02-20T07:49:57.130Z,6.14
2018-02-20T07:50:37.699Z,6.17
2018-02-20T07:51:18.272Z,6.17
2018-02-20T07:51:58.850Z,6.28
2018-02-20T07:52:39.401Z,6.19
2018-02-20T07:53:19.951Z,6.28
2018-02-20T07:54:00.497Z,6.31
2018-02-20T07:54:41.070Z,6.25
2018-02-20T07:55:21.608Z,6.27
2018-02-20T07:56:02.157Z,6.27
2018-02-20T07:56:42.739Z,6.31
2018-02-20T07:57:23.296Z,6.33
2018-02-20T07:58:03.866Z,6.22
2018-02-20T07:58:44.432Z,6.31
2018-02-20T07:59:25.101Z,6.25
2018-02-20T08:00:05.719Z,6.59
2018-02-20T08:00:46.309Z,6.54
2018-02-20T08:01:26.871Z,6.64
2018-02-20T08:02:07.432Z,6.87
2018-02-20T08:02:47.988Z,6.89
2018-02-20T08:03:28.557Z,6.8
2018-02-20T08:04:09.111Z,6.77
2018-02-20T08:04:49.669Z,6.8
2018-02-20T08:05:30.265Z,6.84
2018-02-20T08:06:10.808Z,6.77
2018-02-20T08:06:51.380Z,6.79
2018-02-20T08:07:31.943Z,6.64
2018-02-20T08:08:12.534Z,6.61
2018-02-20T08:08:53.181Z,6.67
2018-02-20T08:09:33.731Z,6.67
2018-02-20T08:10:14.293Z,6.85
2018-02-20T08:10:54.873Z,6.88
2018-02-20T08:11:35.442Z,7.12
2018-02-20T08:12:16.205Z,7.15
2018-02-20T08:12:56.604Z,7.16
2018-02-20T08:13:37.232Z,7.23
2018-02-20T08:14:17.796Z,7.24
2018-02-20T08:14:58.354Z,7.02
2018-02-20T08:15:38.916Z,6.81
2018-02-20T08:16:19.483Z,6.84
2018-02-20T08:17:00.065Z,7.03
2018-02-20T08:17:40.638Z,6.88
2018-02-20T08:18:21.195Z,6.85
2018-02-20T08:19:01.759Z,6.91
2018-02-20T08:19:42.358Z,6.79
2018-02-20T08:20:22.899Z,6.7
2018-02-20T08:21:03.472Z,6.79
2018-02-20T08:21:44.032Z,6.85
2018-02-20T08:22:24.586Z,6.88
2018-02-20T08:23:05.171Z,6.98
2018-02-20T08:23:45.728Z,6.88
2018-02-20T08:24:26.295Z,6.97
2018-02-20T08:25:06.847Z,6.98
2018-02-20T08:25:47.429Z,6.95
2018-02-20T08:26:28.016Z,7.07
2018-02-20T08:27:08.582Z,7.16
2018-02-20T08:27:49.151Z,7.31
2018-02-20T08:28:29.723Z,7.53
2018-02-20T08:29:10.315Z,7.52
2018-02-20T08:29:50.887Z,7.71
2018-02-20T08:30:31.425Z,7.61
2018-02-20T08:31:11.979Z,7.43
2018-02-20T08:31:52.546Z,6.95
2018-02-20T08:32:33.103Z,6.8
2018-02-20T08:33:13.683Z,6.56
2018-02-20T08:33:54.256Z,6.59
2018-02-20T08:34:34.903Z,6.66
2018-02-20T08:35:15.376Z,6.69
2018-02-20T08:35:55.949Z,6.67
2018-02-20T08:36:36.559Z,6.64
2018-02-20T08:37:17.039Z,6.76
2018-02-20T08:37:57.625Z,6.74
2018-02-20T08:38:38.394Z,6.84
2018-02-20T08:39:18.951Z,6.69
2018-02-20T08:39:59.612Z,6.73
2018-02-20T08:40:40.191Z,6.79
2018-02-20T08:41:20.770Z,6.81
2018-02-20T08:42:01.321Z,6.85
2018-02-20T08:42:41.888Z,6.87
2018-02-20T08:43:22.446Z,7.2
2018-02-20T08:44:03.010Z,7.39
2018-02-20T08:44:43.591Z,7.21
2018-02-20T08:45:24.158Z,7.2
2018-02-20T08:46:04.709Z,6.99
2018-02-20T08:46:45.270Z,6.8
2018-02-20T08:47:25.831Z,6.84
2018-02-20T08:48:06.396Z,6.87
2018-02-20T08:48:47.069Z,6.81
2018-02-20T08:49:27.624Z,6.98
2018-02-20T08:50:08.177Z,6.95
2018-02-20T08:50:48.902Z,6.97
2018-02-20T08:51:29.450Z,7.03
2018-02-20T08:52:10.226Z,7.05
2018-02-20T08:52:50.751Z,7.05
2018-02-20T08:53:31.318Z,7.02
2018-02-20T08:54:11.882Z,6.95
2018-02-20T08:54:52.867Z,7.05
2018-02-20T08:55:33.421Z,7.1
2018-02-20T08:56:14.177Z,7.15
2018-02-20T08:56:54.732Z,7.2
2018-02-20T08:57:35.314Z,6.95
2018-02-20T08:58:15.864Z,6.97
2018-02-20T08:58:56.438Z,6.89
2018-02-20T08:59:37.029Z,7.06
2018-02-20T09:00:17.580Z,6.74
2018-02-20T09:00:58.478Z,6.71
2018-02-20T09:01:39.162Z,6.8
2018-02-20T09:02:21.409Z,6.81